sensor_id;sensor_type;location;lat;lon;timestamp;pressure;altitude;pressure_sealevel;temperature;humidity
51195;BME280;37259;49.972;19.850;2023-03-04T00:00:44;98850;;;0;85.1
51195;BME280;37259;49.972;19.850;2023-03-04T00:01:44;98850;;;0;85.1
51195;BME280;37259;49.972;19.850;2023-03-04T00:02:44;98850;;;0;85.1
51195;BME280;37259;49.972;19.850;2023-03-04T00:03:44;98850;;;0;85.1
51195;BME280;37259;49.972;19.850;2023-03-04T00:04:44;98850;;;0;85.1
51195;BME280;37259;49.972;19.850;2023-03-04T00:05:44;98850;;;0;85.1
51195;BME280;37259;49.972;19.850;2023-03-04T00:06:44;98850;;;0;85.1
51195;BME280;37259;49.972;19.850;2023-03-04T00:07:44;98850;;;0;85.2
51195;BME280;37259;49.972;19.850;2023-03-04T00:08:44;98840;;;0;85.2
51195;BME280;37259;49.972;19.850;2023-03-04T00:09:44;98840;;;0;85.2
51195;BME280;37259;49.972;19.850;2023-03-04T00:10:45;98850;;;0;85
51195;BME280;37259;49.972;19.850;2023-03-04T00:11:44;98850;;;0;85
51195;BME280;37259;49.972;19.850;2023-03-04T00:12:44;98840;;;0;85.1
51195;BME280;37259;49.972;19.850;2023-03-04T00:13:44;98840;;;0;85.1
51195;BME280;37259;49.972;19.850;2023-03-04T00:14:44;98840;;;0;85.1
51195;BME280;37259;49.972;19.850;2023-03-04T00:15:44;98840;;;0;85.1
51195;BME280;37259;49.972;19.850;2023-03-04T00:16:44;98840;;;0.1;85
51195;BME280;37259;49.972;19.850;2023-03-04T00:17:44;98840;;;0.1;85
51195;BME280;37259;49.972;19.850;2023-03-04T00:18:44;98840;;;0;84.9
51195;BME280;37259;49.972;19.850;2023-03-04T00:19:44;98840;;;0;84.9
51195;BME280;37259;49.972;19.850;2023-03-04T00:20:44;98840;;;0;85
51195;BME280;37259;49.972;19.850;2023-03-04T00:21:44;98830;;;0;85
51195;BME280;37259;49.972;19.850;2023-03-04T00:22:44;98830;;;0;85
51195;BME280;37259;49.972;19.850;2023-03-04T00:23:44;98830;;;0.1;84.9
51195;BME280;37259;49.972;19.850;2023-03-04T00:24:44;98830;;;0.1;84.9
51195;BME280;37259;49.972;19.850;2023-03-04T00:25:44;98830;;;0;84.9
51195;BME280;37259;49.972;19.850;2023-03-04T00:26:44;98820;;;0;84.9
51195;BME280;37259;49.972;19.850;2023-03-04T00:27:44;98820;;;0;84.9
51195;BME280;37259;49.972;19.850;2023-03-04T00:28:44;98820;;;0.1;84.8
51195;BME280;37259;49.972;19.850;2023-03-04T00:29:44;98820;;;0.1;84.8
51195;BME280;37259;49.972;19.850;2023-03-04T00:30:44;98820;;;0;84.7
51195;BME280;37259;49.972;19.850;2023-03-04T00:31:44;98820;;;0;84.8
51195;BME280;37259;49.972;19.850;2023-03-04T00:32:44;98820;;;0;84.9
51195;BME280;37259;49.972;19.850;2023-03-04T00:33:44;98820;;;0;84.9
51195;BME280;37259;49.972;19.850;2023-03-04T00:34:44;98810;;;0;84.9
51195;BME280;37259;49.972;19.850;2023-03-04T00:35:44;98810;;;0.1;84.8
51195;BME280;37259;49.972;19.850;2023-03-04T00:36:44;98810;;;0.1;84.8
51195;BME280;37259;49.972;19.850;2023-03-04T00:37:44;98810;;;0.1;84.8
51195;BME280;37259;49.972;19.850;2023-03-04T00:38:44;98810;;;0.1;84.7
51195;BME280;37259;49.972;19.850;2023-03-04T00:39:44;98810;;;0.1;84.7
51195;BME280;37259;49.972;19.850;2023-03-04T00:40:44;98800;;;0.1;84.6
51195;BME280;37259;49.972;19.850;2023-03-04T00:41:44;98800;;;0;84.6
51195;BME280;37259;49.972;19.850;2023-03-04T00:42:44;98800;;;0;84.6
51195;BME280;37259;49.972;19.850;2023-03-04T00:43:44;98800;;;0.1;84.6
51195;BME280;37259;49.972;19.850;2023-03-04T00:44:44;98790;;;0.1;84.6
51195;BME280;37259;49.972;19.850;2023-03-04T00:45:44;98790;;;0.1;84.6
51195;BME280;37259;49.972;19.850;2023-03-04T00:46:44;98790;;;0.1;84.6
51195;BME280;37259;49.972;19.850;2023-03-04T00:47:44;98790;;;0.1;84.7
51195;BME280;37259;49.972;19.850;2023-03-04T00:48:44;98790;;;0.1;84.7
51195;BME280;37259;49.972;19.850;2023-03-04T00:49:44;98780;;;0.1;84.5
51195;BME280;37259;49.972;19.850;2023-03-04T00:50:44;98780;;;0.1;84.5
51195;BME280;37259;49.972;19.850;2023-03-04T00:51:44;98780;;;0.1;84.5
51195;BME280;37259;49.972;19.850;2023-03-04T00:52:44;98780;;;0.1;84.4
51195;BME280;37259;49.972;19.850;2023-03-04T00:53:44;98780;;;0.1;84.4
51195;BME280;37259;49.972;19.850;2023-03-04T00:54:44;98780;;;0.1;84.5
51195;BME280;37259;49.972;19.850;2023-03-04T00:55:44;98780;;;0.1;84.5
51195;BME280;37259;49.972;19.850;2023-03-04T00:56:44;98770;;;0.1;84.4
51195;BME280;37259;49.972;19.850;2023-03-04T00:57:44;98770;;;0.1;84.4
51195;BME280;37259;49.972;19.850;2023-03-04T00:58:44;98780;;;0.1;84.5
51195;BME280;37259;49.972;19.850;2023-03-04T00:59:44;98780;;;0.1;84.5
51195;BME280;37259;49.972;19.850;2023-03-04T01:00:44;98770;;;0.2;84.5
51195;BME280;37259;49.972;19.850;2023-03-04T01:01:44;98770;;;0.2;84.5
51195;BME280;37259;49.972;19.850;2023-03-04T01:02:44;98780;;;0.1;84.4
51195;BME280;37259;49.972;19.850;2023-03-04T01:03:44;98770;;;0.1;84.4
51195;BME280;37259;49.972;19.850;2023-03-04T01:04:44;98770;;;0.1;84.5
51195;BME280;37259;49.972;19.850;2023-03-04T01:05:44;98770;;;0.1;84.5
51195;BME280;37259;49.972;19.850;2023-03-04T01:06:44;98760;;;0.1;84.5
51195;BME280;37259;49.972;19.850;2023-03-04T01:07:44;98760;;;0.1;84.5
51195;BME280;37259;49.972;19.850;2023-03-04T01:08:44;98760;;;0.2;84.5
51195;BME280;37259;49.972;19.850;2023-03-04T01:09:44;98750;;;0.2;84.5
51195;BME280;37259;49.972;19.850;2023-03-04T01:10:44;98750;;;0.2;84.5
51195;BME280;37259;49.972;19.850;2023-03-04T01:11:44;98750;;;0.2;84.5
51195;BME280;37259;49.972;19.850;2023-03-04T01:12:44;98730;;;0.2;84.4
51195;BME280;37259;49.972;19.850;2023-03-04T01:13:44;98730;;;0.2;84.4
51195;BME280;37259;49.972;19.850;2023-03-04T01:14:44;98730;;;0.2;84.4
51195;BME280;37259;49.972;19.850;2023-03-04T01:15:44;98730;;;0.2;84.5
51195;BME280;37259;49.972;19.850;2023-03-04T01:16:44;98720;;;0.2;84.5
51195;BME280;37259;49.972;19.850;2023-03-04T01:17:44;98720;;;0.2;84.5
51195;BME280;37259;49.972;19.850;2023-03-04T01:18:44;98720;;;0.2;84.4
51195;BME280;37259;49.972;19.850;2023-03-04T01:19:44;98720;;;0.2;84.5
51195;BME280;37259;49.972;19.850;2023-03-04T01:20:44;98720;;;0.2;84.5
51195;BME280;37259;49.972;19.850;2023-03-04T01:21:44;98720;;;0.2;84.5
51195;BME280;37259;49.972;19.850;2023-03-04T01:22:44;98720;;;0.2;84.5
51195;BME280;37259;49.972;19.850;2023-03-04T01:23:44;98710;;;0.2;84.4
51195;BME280;37259;49.972;19.850;2023-03-04T01:24:44;98720;;;0.3;84.4
51195;BME280;37259;49.972;19.850;2023-03-04T01:25:44;98720;;;0.2;84.4
51195;BME280;37259;49.972;19.850;2023-03-04T01:26:44;98720;;;0.2;84.4
51195;BME280;37259;49.972;19.850;2023-03-04T01:27:44;98710;;;0.2;84.3
51195;BME280;37259;49.972;19.850;2023-03-04T01:28:44;98710;;;0.2;84.4
51195;BME280;37259;49.972;19.850;2023-03-04T01:29:44;98710;;;0.3;84.4
51195;BME280;37259;49.972;19.850;2023-03-04T01:30:44;98710;;;0.3;84.4
51195;BME280;37259;49.972;19.850;2023-03-04T01:31:44;98700;;;0.3;84.4
51195;BME280;37259;49.972;19.850;2023-03-04T01:32:44;98700;;;0.3;84.4
51195;BME280;37259;49.972;19.850;2023-03-04T01:33:44;98700;;;0.3;84.3
51195;BME280;37259;49.972;19.850;2023-03-04T01:34:44;98700;;;0.3;84.3
51195;BME280;37259;49.972;19.850;2023-03-04T01:35:44;98700;;;0.3;84.3
51195;BME280;37259;49.972;19.850;2023-03-04T01:36:44;98690;;;0.3;84.3
51195;BME280;37259;49.972;19.850;2023-03-04T01:37:44;98690;;;0.3;84.3
51195;BME280;37259;49.972;19.850;2023-03-04T01:38:44;98690;;;0.3;84.3
51195;BME280;37259;49.972;19.850;2023-03-04T01:39:44;98690;;;0.3;84.2
51195;BME280;37259;49.972;19.850;2023-03-04T01:40:44;98690;;;0.3;84.3
51195;BME280;37259;49.972;19.850;2023-03-04T01:41:44;98690;;;0.3;84.3
51195;BME280;37259;49.972;19.850;2023-03-04T01:42:44;98690;;;0.3;84.3
51195;BME280;37259;49.972;19.850;2023-03-04T01:43:44;98690;;;0.3;84.2
51195;BME280;37259;49.972;19.850;2023-03-04T01:44:44;98690;;;0.3;84.2
51195;BME280;37259;49.972;19.850;2023-03-04T01:45:44;98690;;;0.3;84.2
51195;BME280;37259;49.972;19.850;2023-03-04T01:46:46;98690;;;0.3;84.2
51195;BME280;37259;49.972;19.850;2023-03-04T01:47:45;98680;;;0.3;84.1
51195;BME280;37259;49.972;19.850;2023-03-04T01:48:44;98680;;;0.3;84.1
51195;BME280;37259;49.972;19.850;2023-03-04T01:49:45;98680;;;0.3;84.1
51195;BME280;37259;49.972;19.850;2023-03-04T01:50:44;98680;;;0.3;84.1
51195;BME280;37259;49.972;19.850;2023-03-04T01:51:45;98680;;;0.3;84.1
51195;BME280;37259;49.972;19.850;2023-03-04T01:52:44;98680;;;0.3;84
51195;BME280;37259;49.972;19.850;2023-03-04T01:53:45;98680;;;0.3;83.9
51195;BME280;37259;49.972;19.850;2023-03-04T01:54:44;98680;;;0.3;84
51195;BME280;37259;49.972;19.850;2023-03-04T01:55:44;98680;;;0.3;84
51195;BME280;37259;49.972;19.850;2023-03-04T01:56:45;98680;;;0.3;83.9
51195;BME280;37259;49.972;19.850;2023-03-04T01:57:44;98680;;;0.3;83.9
51195;BME280;37259;49.972;19.850;2023-03-04T01:58:44;98680;;;0.4;83.9
51195;BME280;37259;49.972;19.850;2023-03-04T01:59:44;98680;;;0.3;83.9
51195;BME280;37259;49.972;19.850;2023-03-04T02:00:44;98680;;;0.3;83.9
51195;BME280;37259;49.972;19.850;2023-03-04T02:01:45;98680;;;0.4;83.8
51195;BME280;37259;49.972;19.850;2023-03-04T02:02:44;98680;;;0.4;83.8
51195;BME280;37259;49.972;19.850;2023-03-04T02:03:44;98680;;;0.4;83.8
51195;BME280;37259;49.972;19.850;2023-03-04T02:04:44;98670;;;0.4;83.7
51195;BME280;37259;49.972;19.850;2023-03-04T02:05:45;98680;;;0.4;83.7
51195;BME280;37259;49.972;19.850;2023-03-04T02:06:45;98680;;;0.3;83.7
51195;BME280;37259;49.972;19.850;2023-03-04T02:07:44;98680;;;0.3;83.7
51195;BME280;37259;49.972;19.850;2023-03-04T02:08:44;98670;;;0.4;83.7
51195;BME280;37259;49.972;19.850;2023-03-04T02:09:44;98670;;;0.4;83.7
51195;BME280;37259;49.972;19.850;2023-03-04T02:10:44;98660;;;0.4;83.7
51195;BME280;37259;49.972;19.850;2023-03-04T02:11:45;98660;;;0.4;83.7
51195;BME280;37259;49.972;19.850;2023-03-04T02:12:44;98660;;;0.4;83.6
51195;BME280;37259;49.972;19.850;2023-03-04T02:13:44;98660;;;0.4;83.6
51195;BME280;37259;49.972;19.850;2023-03-04T02:14:44;98660;;;0.4;83.5
51195;BME280;37259;49.972;19.850;2023-03-04T02:15:44;98660;;;0.4;83.5
51195;BME280;37259;49.972;19.850;2023-03-04T02:16:44;98660;;;0.4;83.4
51195;BME280;37259;49.972;19.850;2023-03-04T02:17:44;98660;;;0.4;83.4
51195;BME280;37259;49.972;19.850;2023-03-04T02:18:44;98660;;;0.4;83.3
51195;BME280;37259;49.972;19.850;2023-03-04T02:19:45;98650;;;0.4;83.3
51195;BME280;37259;49.972;19.850;2023-03-04T02:20:47;98660;;;0.4;83.3
51195;BME280;37259;49.972;19.850;2023-03-04T02:21:44;98660;;;0.4;83.2
51195;BME280;37259;49.972;19.850;2023-03-04T02:22:45;98660;;;0.4;83.1
51195;BME280;37259;49.972;19.850;2023-03-04T02:23:45;98660;;;0.4;83.1
51195;BME280;37259;49.972;19.850;2023-03-04T02:24:45;98660;;;0.4;83.2
51195;BME280;37259;49.972;19.850;2023-03-04T02:25:46;98660;;;0.4;83.3
51195;BME280;37259;49.972;19.850;2023-03-04T02:26:44;98660;;;0.4;83.3
51195;BME280;37259;49.972;19.850;2023-03-04T02:27:44;98660;;;0.4;83.3
51195;BME280;37259;49.972;19.850;2023-03-04T02:28:44;98650;;;0.4;83.2
51195;BME280;37259;49.972;19.850;2023-03-04T02:29:44;98650;;;0.4;83.2
51195;BME280;37259;49.972;19.850;2023-03-04T02:30:44;98650;;;0.4;83.2
51195;BME280;37259;49.972;19.850;2023-03-04T02:31:45;98650;;;0.5;83.1
51195;BME280;37259;49.972;19.850;2023-03-04T02:32:44;98650;;;0.5;83
51195;BME280;37259;49.972;19.850;2023-03-04T02:33:44;98650;;;0.4;83
51195;BME280;37259;49.972;19.850;2023-03-04T02:34:45;98650;;;0.4;83
51195;BME280;37259;49.972;19.850;2023-03-04T02:35:44;98660;;;0.4;82.9
51195;BME280;37259;49.972;19.850;2023-03-04T02:36:45;98660;;;0.4;82.9
51195;BME280;37259;49.972;19.850;2023-03-04T02:37:44;98650;;;0.4;82.9
51195;BME280;37259;49.972;19.850;2023-03-04T02:38:44;98650;;;0.4;82.9
51195;BME280;37259;49.972;19.850;2023-03-04T02:39:45;98650;;;0.4;83
51195;BME280;37259;49.972;19.850;2023-03-04T02:40:45;98650;;;0.4;83
51195;BME280;37259;49.972;19.850;2023-03-04T02:41:44;98650;;;0.4;83
51195;BME280;37259;49.972;19.850;2023-03-04T02:42:44;98650;;;0.4;83
51195;BME280;37259;49.972;19.850;2023-03-04T02:43:44;98650;;;0.4;83
51195;BME280;37259;49.972;19.850;2023-03-04T02:44:44;98640;;;0.4;82.9
51195;BME280;37259;49.972;19.850;2023-03-04T02:45:45;98650;;;0.5;82.9
51195;BME280;37259;49.972;19.850;2023-03-04T02:46:44;98650;;;0.5;82.9
51195;BME280;37259;49.972;19.850;2023-03-04T02:47:44;98650;;;0.5;82.9
51195;BME280;37259;49.972;19.850;2023-03-04T02:48:44;98650;;;0.5;82.8
51195;BME280;37259;49.972;19.850;2023-03-04T02:49:44;98650;;;0.5;82.8
51195;BME280;37259;49.972;19.850;2023-03-04T02:50:45;98640;;;0.5;82.8
51195;BME280;37259;49.972;19.850;2023-03-04T02:51:44;98640;;;0.5;82.8
51195;BME280;37259;49.972;19.850;2023-03-04T02:52:44;98640;;;0.5;82.7
51195;BME280;37259;49.972;19.850;2023-03-04T02:53:44;98640;;;0.5;82.7
51195;BME280;37259;49.972;19.850;2023-03-04T02:54:44;98630;;;0.5;82.7
51195;BME280;37259;49.972;19.850;2023-03-04T02:55:44;98630;;;0.5;82.7
51195;BME280;37259;49.972;19.850;2023-03-04T02:56:44;98630;;;0.5;82.7
51195;BME280;37259;49.972;19.850;2023-03-04T02:57:44;98620;;;0.5;82.7
51195;BME280;37259;49.972;19.850;2023-03-04T02:58:44;98620;;;0.5;82.7
51195;BME280;37259;49.972;19.850;2023-03-04T02:59:44;98620;;;0.5;82.7
51195;BME280;37259;49.972;19.850;2023-03-04T03:00:44;98620;;;0.5;82.7
51195;BME280;37259;49.972;19.850;2023-03-04T03:01:44;98620;;;0.5;82.6
51195;BME280;37259;49.972;19.850;2023-03-04T03:02:44;98620;;;0.5;82.6
51195;BME280;37259;49.972;19.850;2023-03-04T03:03:44;98610;;;0.5;82.7
51195;BME280;37259;49.972;19.850;2023-03-04T03:04:44;98620;;;0.5;82.7
51195;BME280;37259;49.972;19.850;2023-03-04T03:05:44;98610;;;0.5;82.7
51195;BME280;37259;49.972;19.850;2023-03-04T03:06:44;98610;;;0.5;82.6
51195;BME280;37259;49.972;19.850;2023-03-04T03:07:44;98610;;;0.5;82.6
51195;BME280;37259;49.972;19.850;2023-03-04T03:08:44;98610;;;0.5;82.6
51195;BME280;37259;49.972;19.850;2023-03-04T03:09:44;98610;;;0.5;82.6
51195;BME280;37259;49.972;19.850;2023-03-04T03:10:44;98600;;;0.5;82.6
51195;BME280;37259;49.972;19.850;2023-03-04T03:11:44;98600;;;0.5;82.5
51195;BME280;37259;49.972;19.850;2023-03-04T03:12:44;98600;;;0.5;82.5
51195;BME280;37259;49.972;19.850;2023-03-04T03:13:45;98590;;;0.5;82.6
51195;BME280;37259;49.972;19.850;2023-03-04T03:14:44;98590;;;0.5;82.6
51195;BME280;37259;49.972;19.850;2023-03-04T03:15:44;98600;;;0.5;82.5
51195;BME280;37259;49.972;19.850;2023-03-04T03:16:44;98600;;;0.5;82.6
51195;BME280;37259;49.972;19.850;2023-03-04T03:17:44;98600;;;0.5;82.6
51195;BME280;37259;49.972;19.850;2023-03-04T03:18:44;98600;;;0.5;82.6
51195;BME280;37259;49.972;19.850;2023-03-04T03:19:45;98590;;;0.5;82.6
51195;BME280;37259;49.972;19.850;2023-03-04T03:20:44;98600;;;0.5;82.6
51195;BME280;37259;49.972;19.850;2023-03-04T03:21:44;98600;;;0.5;82.7
51195;BME280;37259;49.972;19.850;2023-03-04T03:22:44;98590;;;0.5;82.7
51195;BME280;37259;49.972;19.850;2023-03-04T03:23:44;98590;;;0.5;82.7
51195;BME280;37259;49.972;19.850;2023-03-04T03:24:44;98590;;;0.5;82.7
51195;BME280;37259;49.972;19.850;2023-03-04T03:25:44;98590;;;0.5;82.7
51195;BME280;37259;49.972;19.850;2023-03-04T03:26:44;98590;;;0.5;82.6
51195;BME280;37259;49.972;19.850;2023-03-04T03:27:44;98590;;;0.5;82.6
51195;BME280;37259;49.972;19.850;2023-03-04T03:28:45;98590;;;0.5;82.8
51195;BME280;37259;49.972;19.850;2023-03-04T03:29:44;98580;;;0.5;82.7
51195;BME280;37259;49.972;19.850;2023-03-04T03:30:45;98580;;;0.5;82.7
51195;BME280;37259;49.972;19.850;2023-03-04T03:31:44;98580;;;0.5;82.7
51195;BME280;37259;49.972;19.850;2023-03-04T03:32:44;98580;;;0.5;82.7
51195;BME280;37259;49.972;19.850;2023-03-04T03:33:44;98570;;;0.5;82.7
51195;BME280;37259;49.972;19.850;2023-03-04T03:34:44;98570;;;0.4;82.7
51195;BME280;37259;49.972;19.850;2023-03-04T03:35:44;98580;;;0.4;82.6
51195;BME280;37259;49.972;19.850;2023-03-04T03:36:44;98580;;;0.4;82.6
51195;BME280;37259;49.972;19.850;2023-03-04T03:37:44;98570;;;0.4;82.7
51195;BME280;37259;49.972;19.850;2023-03-04T03:38:45;98570;;;0.4;82.7
51195;BME280;37259;49.972;19.850;2023-03-04T03:39:44;98570;;;0.3;82.8
51195;BME280;37259;49.972;19.850;2023-03-04T03:40:44;98570;;;0.3;82.8
51195;BME280;37259;49.972;19.850;2023-03-04T03:41:44;98570;;;0.3;82.9
51195;BME280;37259;49.972;19.850;2023-03-04T03:42:44;98570;;;0.3;82.9
51195;BME280;37259;49.972;19.850;2023-03-04T03:43:44;98570;;;0.3;82.9
51195;BME280;37259;49.972;19.850;2023-03-04T03:44:44;98570;;;0.2;82.9
51195;BME280;37259;49.972;19.850;2023-03-04T03:45:44;98570;;;0.2;82.9
51195;BME280;37259;49.972;19.850;2023-03-04T03:46:44;98570;;;0.1;83.1
51195;BME280;37259;49.972;19.850;2023-03-04T03:47:44;98570;;;0.1;83.1
51195;BME280;37259;49.972;19.850;2023-03-04T03:48:45;98580;;;0.1;83.4
51195;BME280;37259;49.972;19.850;2023-03-04T03:49:44;98580;;;0.1;83.5
51195;BME280;37259;49.972;19.850;2023-03-04T03:50:44;98580;;;0.1;83.5
51195;BME280;37259;49.972;19.850;2023-03-04T03:51:44;98580;;;0.1;83.7
51195;BME280;37259;49.972;19.850;2023-03-04T03:52:44;98580;;;0.1;83.7
51195;BME280;37259;49.972;19.850;2023-03-04T03:53:44;98590;;;0;83.9
51195;BME280;37259;49.972;19.850;2023-03-04T03:54:44;98590;;;0;83.9
51195;BME280;37259;49.972;19.850;2023-03-04T03:55:44;98580;;;0;84
51195;BME280;37259;49.972;19.850;2023-03-04T03:56:44;98590;;;0.1;84.1
51195;BME280;37259;49.972;19.850;2023-03-04T03:57:44;98590;;;0.1;84.1
51195;BME280;37259;49.972;19.850;2023-03-04T03:58:44;98590;;;0.1;84
51195;BME280;37259;49.972;19.850;2023-03-04T03:59:44;98590;;;0;84
51195;BME280;37259;49.972;19.850;2023-03-04T04:00:44;98590;;;0;84
51195;BME280;37259;49.972;19.850;2023-03-04T04:01:44;98590;;;0;84.2
51195;BME280;37259;49.972;19.850;2023-03-04T04:02:44;98590;;;0;84.2
51195;BME280;37259;49.972;19.850;2023-03-04T04:03:44;98590;;;0;84.4
51195;BME280;37259;49.972;19.850;2023-03-04T04:04:44;98590;;;0;84.4
51195;BME280;37259;49.972;19.850;2023-03-04T04:05:44;98590;;;0;84.4
51195;BME280;37259;49.972;19.850;2023-03-04T04:06:44;98580;;;-0.1;84.4
51195;BME280;37259;49.972;19.850;2023-03-04T04:07:44;98580;;;-0.1;84.4
51195;BME280;37259;49.972;19.850;2023-03-04T04:08:44;98580;;;-0.1;84.6
51195;BME280;37259;49.972;19.850;2023-03-04T04:09:44;98580;;;-0.1;84.6
51195;BME280;37259;49.972;19.850;2023-03-04T04:10:44;98570;;;-0.1;84.6
51195;BME280;37259;49.972;19.850;2023-03-04T04:11:44;98570;;;-0.1;84.6
51195;BME280;37259;49.972;19.850;2023-03-04T04:12:44;98570;;;-0.1;84.6
51195;BME280;37259;49.972;19.850;2023-03-04T04:13:44;98570;;;-0.1;84.7
51195;BME280;37259;49.972;19.850;2023-03-04T04:14:44;98570;;;-0.1;84.8
51195;BME280;37259;49.972;19.850;2023-03-04T04:15:45;98570;;;-0.1;84.7
51195;BME280;37259;49.972;19.850;2023-03-04T04:16:44;98570;;;-0.1;84.7
51195;BME280;37259;49.972;19.850;2023-03-04T04:17:44;98570;;;-0.2;84.8
51195;BME280;37259;49.972;19.850;2023-03-04T04:18:44;98570;;;-0.2;84.9
51195;BME280;37259;49.972;19.850;2023-03-04T04:19:44;98570;;;-0.2;84.9
51195;BME280;37259;49.972;19.850;2023-03-04T04:20:44;98570;;;-0.2;84.9
51195;BME280;37259;49.972;19.850;2023-03-04T04:21:45;98570;;;-0.2;84.9
51195;BME280;37259;49.972;19.850;2023-03-04T04:22:44;98570;;;-0.2;85
51195;BME280;37259;49.972;19.850;2023-03-04T04:23:44;98570;;;-0.2;85.1
51195;BME280;37259;49.972;19.850;2023-03-04T04:24:45;98570;;;-0.2;85.1
51195;BME280;37259;49.972;19.850;2023-03-04T04:25:44;98570;;;-0.3;85.1
51195;BME280;37259;49.972;19.850;2023-03-04T04:26:44;98570;;;-0.3;85.1
51195;BME280;37259;49.972;19.850;2023-03-04T04:27:44;98560;;;-0.3;85.3
51195;BME280;37259;49.972;19.850;2023-03-04T04:28:44;98560;;;-0.3;85.3
51195;BME280;37259;49.972;19.850;2023-03-04T04:29:44;98560;;;-0.3;85.3
51195;BME280;37259;49.972;19.850;2023-03-04T04:30:44;98560;;;-0.3;85.3
51195;BME280;37259;49.972;19.850;2023-03-04T04:31:44;98560;;;-0.4;85.2
51195;BME280;37259;49.972;19.850;2023-03-04T04:32:44;98560;;;-0.4;85.3
51195;BME280;37259;49.972;19.850;2023-03-04T04:33:44;98560;;;-0.4;85.3
51195;BME280;37259;49.972;19.850;2023-03-04T04:34:44;98560;;;-0.4;85.3
51195;BME280;37259;49.972;19.850;2023-03-04T04:35:44;98560;;;-0.4;85.4
51195;BME280;37259;49.972;19.850;2023-03-04T04:36:44;98560;;;-0.4;85.4
51195;BME280;37259;49.972;19.850;2023-03-04T04:37:44;98560;;;-0.4;85.5
51195;BME280;37259;49.972;19.850;2023-03-04T04:38:44;98560;;;-0.4;85.5
51195;BME280;37259;49.972;19.850;2023-03-04T04:39:44;98560;;;-0.4;85.6
51195;BME280;37259;49.972;19.850;2023-03-04T04:40:44;98560;;;-0.4;85.6
51195;BME280;37259;49.972;19.850;2023-03-04T04:41:45;98560;;;-0.4;85.6
51195;BME280;37259;49.972;19.850;2023-03-04T04:42:44;98560;;;-0.4;85.6
51195;BME280;37259;49.972;19.850;2023-03-04T04:43:44;98560;;;-0.4;85.7
51195;BME280;37259;49.972;19.850;2023-03-04T04:44:44;98560;;;-0.5;85.7
51195;BME280;37259;49.972;19.850;2023-03-04T04:45:45;98560;;;-0.5;85.7
51195;BME280;37259;49.972;19.850;2023-03-04T04:46:44;98560;;;-0.5;85.7
51195;BME280;37259;49.972;19.850;2023-03-04T04:47:44;98560;;;-0.5;85.7
51195;BME280;37259;49.972;19.850;2023-03-04T04:48:44;98560;;;-0.5;85.7
51195;BME280;37259;49.972;19.850;2023-03-04T04:49:44;98550;;;-0.5;85.6
51195;BME280;37259;49.972;19.850;2023-03-04T04:50:44;98550;;;-0.5;85.6
51195;BME280;37259;49.972;19.850;2023-03-04T04:51:44;98550;;;-0.5;85.7
51195;BME280;37259;49.972;19.850;2023-03-04T04:52:44;98550;;;-0.5;85.7
51195;BME280;37259;49.972;19.850;2023-03-04T04:53:44;98550;;;-0.5;85.8
51195;BME280;37259;49.972;19.850;2023-03-04T04:54:44;98550;;;-0.5;85.8
51195;BME280;37259;49.972;19.850;2023-03-04T04:55:44;98550;;;-0.5;85.8
51195;BME280;37259;49.972;19.850;2023-03-04T04:56:44;98550;;;-0.5;85.9
51195;BME280;37259;49.972;19.850;2023-03-04T04:57:44;98550;;;-0.5;85.9
51195;BME280;37259;49.972;19.850;2023-03-04T04:58:45;98550;;;-0.5;85.9
51195;BME280;37259;49.972;19.850;2023-03-04T04:59:44;98550;;;-0.5;85.9
51195;BME280;37259;49.972;19.850;2023-03-04T05:00:44;98550;;;-0.5;85.9
51195;BME280;37259;49.972;19.850;2023-03-04T05:01:44;98550;;;-0.5;85.9
51195;BME280;37259;49.972;19.850;2023-03-04T05:02:44;98550;;;-0.6;85.9
51195;BME280;37259;49.972;19.850;2023-03-04T05:03:44;98550;;;-0.6;85.9
51195;BME280;37259;49.972;19.850;2023-03-04T05:04:44;98550;;;-0.6;86
51195;BME280;37259;49.972;19.850;2023-03-04T05:05:44;98550;;;-0.6;86.1
51195;BME280;37259;49.972;19.850;2023-03-04T05:06:44;98550;;;-0.6;86.1
51195;BME280;37259;49.972;19.850;2023-03-04T05:07:44;98540;;;-0.6;86.1
51195;BME280;37259;49.972;19.850;2023-03-04T05:08:44;98540;;;-0.6;86.1
51195;BME280;37259;49.972;19.850;2023-03-04T05:09:44;98540;;;-0.6;86.1
51195;BME280;37259;49.972;19.850;2023-03-04T05:10:44;98550;;;-0.6;86
51195;BME280;37259;49.972;19.850;2023-03-04T05:11:44;98540;;;-0.6;86
51195;BME280;37259;49.972;19.850;2023-03-04T05:12:44;98540;;;-0.6;86
51195;BME280;37259;49.972;19.850;2023-03-04T05:13:45;98540;;;-0.6;86
51195;BME280;37259;49.972;19.850;2023-03-04T05:14:44;98540;;;-0.6;86
51195;BME280;37259;49.972;19.850;2023-03-04T05:15:44;98540;;;-0.6;86
51195;BME280;37259;49.972;19.850;2023-03-04T05:16:44;98540;;;-0.6;86
51195;BME280;37259;49.972;19.850;2023-03-04T05:17:44;98540;;;-0.6;86
51195;BME280;37259;49.972;19.850;2023-03-04T05:18:44;98540;;;-0.6;86
51195;BME280;37259;49.972;19.850;2023-03-04T05:19:44;98540;;;-0.6;86
51195;BME280;37259;49.972;19.850;2023-03-04T05:20:44;98540;;;-0.6;86
51195;BME280;37259;49.972;19.850;2023-03-04T05:21:44;98540;;;-0.6;86
51195;BME280;37259;49.972;19.850;2023-03-04T05:22:44;98540;;;-0.6;86.1
51195;BME280;37259;49.972;19.850;2023-03-04T05:23:44;98540;;;-0.7;86.1
51195;BME280;37259;49.972;19.850;2023-03-04T05:24:44;98540;;;-0.7;86.1
51195;BME280;37259;49.972;19.850;2023-03-04T05:25:44;98540;;;-0.7;86.2
51195;BME280;37259;49.972;19.850;2023-03-04T05:26:44;98540;;;-0.7;86.3
51195;BME280;37259;49.972;19.850;2023-03-04T05:27:44;98540;;;-0.7;86.3
51195;BME280;37259;49.972;19.850;2023-03-04T05:28:44;98540;;;-0.7;86.5
51195;BME280;37259;49.972;19.850;2023-03-04T05:29:44;98550;;;-0.6;86.5
51195;BME280;37259;49.972;19.850;2023-03-04T05:30:44;98550;;;-0.6;86.5
51195;BME280;37259;49.972;19.850;2023-03-04T05:31:44;98550;;;-0.7;86.6
51195;BME280;37259;49.972;19.850;2023-03-04T05:32:44;98550;;;-0.6;86.7
51195;BME280;37259;49.972;19.850;2023-03-04T05:33:44;98550;;;-0.6;86.7
51195;BME280;37259;49.972;19.850;2023-03-04T05:34:44;98550;;;-0.6;86.6
51195;BME280;37259;49.972;19.850;2023-03-04T05:35:45;98550;;;-0.6;86.7
51195;BME280;37259;49.972;19.850;2023-03-04T05:36:44;98550;;;-0.6;86.7
51195;BME280;37259;49.972;19.850;2023-03-04T05:37:44;98550;;;-0.5;86.7
51195;BME280;37259;49.972;19.850;2023-03-04T05:38:44;98550;;;-0.5;86.7
51195;BME280;37259;49.972;19.850;2023-03-04T05:39:44;98550;;;-0.5;86.7
51195;BME280;37259;49.972;19.850;2023-03-04T05:40:45;98550;;;-0.5;86.7
51195;BME280;37259;49.972;19.850;2023-03-04T05:41:44;98550;;;-0.5;86.7